Time;durP1;ratioP1;P1;durP2;ratioP2;P2;SDS_P1;SDS_P2;PMS_P1;PMS_P2;Temp;Humidity;BMP_temperature;BMP_pressure;BME280_temperature;BME280_humidity;BME280_pressure;Samples;Min_cycle;Max_cycle;Signal;HPM_P1;HPM_P2
2022/07/10 00:00:39;;;;;;;3.35;2.50;;;22.70;69.30;;;;;;10134169;28;20430;-61
2022/07/10 00:05:31;;;;;;;2.63;2.10;;;22.70;69.60;;;;;;10132983;28;20114;-63
2022/07/10 00:10:23;;;;;;;2.50;2.20;;;22.70;69.70;;;;;;10133498;28;20376;-65
2022/07/10 00:15:15;;;;;;;2.83;2.42;;;22.60;69.70;;;;;;10133592;28;20032;-61
2022/07/10 00:20:07;;;;;;;2.88;2.17;;;22.70;69.90;;;;;;10133923;28;20061;-65
2022/07/10 00:24:57;;;;;;;2.60;2.40;;;22.70;70.00;;;;;;10133063;28;20037;-61
2022/07/10 00:29:49;;;;;;;3.72;2.22;;;22.70;70.00;;;;;;10132263;28;20048;-61
2022/07/10 00:34:39;;;;;;;2.67;2.45;;;22.50;70.40;;;;;;10114962;28;20142;-61
2022/07/10 00:39:30;;;;;;;2.33;2.10;;;22.50;70.50;;;;;;10130616;28;20052;-60
2022/07/10 00:44:21;;;;;;;2.30;1.98;;;22.50;70.70;;;;;;10131757;28;20031;-60
2022/07/10 00:49:20;;;;;;;2.72;2.22;;;22.50;71.00;;;;;;10132181;28;20037;-63
2022/07/10 00:54:11;;;;;;;5.10;2.47;;;22.40;71.20;;;;;;10132659;28;20422;-61
2022/07/10 00:59:03;;;;;;;2.72;2.50;;;22.40;71.20;;;;;;10132198;28;20028;-61
2022/07/10 01:03:54;;;;;;;3.25;2.25;;;22.40;71.30;;;;;;10132276;28;20024;-62
2022/07/10 01:08:45;;;;;;;2.40;2.15;;;22.30;71.40;;;;;;10123118;28;20421;-60
2022/07/10 01:13:36;;;;;;;3.00;2.45;;;22.40;71.60;;;;;;10131940;28;20733;-66
2022/07/10 01:18:27;;;;;;;2.50;2.30;;;22.40;71.60;;;;;;10113156;28;20082;-62
2022/07/10 01:23:18;;;;;;;3.45;2.83;;;22.50;71.50;;;;;;10131501;28;20021;-60
2022/07/10 01:28:09;;;;;;;5.20;3.67;;;22.40;71.70;;;;;;10130905;28;20028;-62
2022/07/10 01:32:59;;;;;;;2.88;2.42;;;22.20;72.00;;;;;;10114225;28;20067;-67
2022/07/10 01:37:50;;;;;;;3.45;2.70;;;22.30;72.00;;;;;;10133474;28;20020;-66
2022/07/10 01:42:41;;;;;;;2.65;2.22;;;22.30;72.20;;;;;;10135991;28;20243;-64
2022/07/10 01:47:31;;;;;;;3.55;2.17;;;22.20;72.40;;;;;;10137786;28;20115;-63
2022/07/10 01:52:22;;;;;;;2.70;2.35;;;22.10;72.50;;;;;;10140989;28;20524;-60
2022/07/10 01:57:13;;;;;;;3.30;2.22;;;22.30;72.40;;;;;;10138672;28;20033;-62
2022/07/10 02:02:04;;;;;;;3.55;2.15;;;22.20;72.10;;;;;;10138339;28;20028;-59
2022/07/10 02:06:54;;;;;;;2.55;1.95;;;22.00;71.90;;;;;;10133848;28;20055;-65
2022/07/10 02:11:45;;;;;;;2.75;2.25;;;22.00;72.00;;;;;;10137908;28;20041;-58
2022/07/10 02:16:35;;;;;;;3.35;2.15;;;22.00;71.80;;;;;;10137201;28;20024;-58
2022/07/10 02:21:26;;;;;;;2.30;1.70;;;21.90;72.30;;;;;;10137238;28;20028;-61
2022/07/10 02:26:17;;;;;;;2.08;1.50;;;21.60;72.60;;;;;;10136757;28;20028;-60
2022/07/10 02:31:08;;;;;;;2.30;1.50;;;21.50;72.60;;;;;;10135617;28;20080;-59
2022/07/10 02:35:58;;;;;;;2.33;1.50;;;21.60;72.40;;;;;;10133850;28;20517;-61
2022/07/10 02:40:49;;;;;;;2.55;1.42;;;21.70;71.80;;;;;;10136341;28;20062;-60
2022/07/10 02:45:40;;;;;;;2.25;1.50;;;21.50;72.00;;;;;;10135782;28;20047;-61
2022/07/10 02:50:30;;;;;;;2.05;1.40;;;21.40;72.10;;;;;;10136702;28;20024;-62
2022/07/10 02:55:21;;;;;;;1.40;1.17;;;21.40;72.00;;;;;;10135573;28;20134;-59
2022/07/10 03:00:12;;;;;;;2.08;1.65;;;21.50;71.70;;;;;;10135889;28;20505;-59
2022/07/10 03:05:03;;;;;;;1.80;1.67;;;21.60;71.50;;;;;;10110180;28;20025;-60
2022/07/10 03:09:53;;;;;;;2.55;2.00;;;21.60;71.30;;;;;;10130432;28;20107;-59
2022/07/10 03:14:44;;;;;;;2.15;1.40;;;21.50;71.40;;;;;;10134993;28;20068;-61
2022/07/10 03:19:35;;;;;;;1.90;1.35;;;21.50;71.30;;;;;;10134535;28;20164;-61
2022/07/10 03:24:25;;;;;;;2.53;1.63;;;21.40;71.40;;;;;;10117688;28;20126;-62
2022/07/10 03:29:16;;;;;;;1.45;1.35;;;21.30;71.60;;;;;;10135273;28;20471;-61
2022/07/10 03:34:07;;;;;;;2.42;1.38;;;21.10;71.50;;;;;;10134685;28;20040;-62
2022/07/10 03:38:57;;;;;;;2.60;1.48;;;21.10;71.80;;;;;;10134093;28;20025;-64
2022/07/10 03:43:48;;;;;;;3.35;1.50;;;21.00;71.80;;;;;;10134684;28;20059;-62
2022/07/10 03:48:39;;;;;;;1.88;1.52;;;20.80;72.80;;;;;;10134138;28;20036;-63
2022/07/10 03:53:29;;;;;;;3.10;1.42;;;20.50;72.90;;;;;;10135930;28;20037;-63
2022/07/10 03:58:20;;;;;;;1.80;1.52;;;20.50;73.10;;;;;;10135678;28;20101;-61
2022/07/10 04:03:13;;;;;;;1.75;1.45;;;20.50;73.30;;;;;;10135512;28;20035;-61
2022/07/10 04:08:04;;;;;;;2.55;1.50;;;20.50;73.70;;;;;;10124345;28;20058;-62
2022/07/10 04:12:55;;;;;;;2.90;1.20;;;20.60;73.40;;;;;;10133191;28;20033;-65
2022/07/10 04:17:47;;;;;;;2.92;1.60;;;20.50;73.60;;;;;;10132864;28;20043;-61
2022/07/10 04:22:37;;;;;;;2.13;1.38;;;20.50;73.70;;;;;;10132327;28;20032;-63
2022/07/10 04:27:28;;;;;;;2.00;1.83;;;20.40;74.20;;;;;;10132741;28;20021;-62
2022/07/10 04:32:19;;;;;;;1.95;1.10;;;20.40;74.10;;;;;;10132321;28;20090;-61
2022/07/10 04:37:10;;;;;;;2.42;1.52;;;20.40;74.10;;;;;;10132620;28;20023;-62
2022/07/10 04:42:03;;;;;;;2.17;1.27;;;20.20;74.50;;;;;;10132151;28;20024;-61
2022/07/10 04:46:53;;;;;;;2.63;1.42;;;20.20;75.10;;;;;;10132284;28;20048;-57
2022/07/10 04:51:44;;;;;;;5.85;1.65;;;20.00;75.60;;;;;;10113683;28;20071;-65
2022/07/10 04:56:34;;;;;;;2.05;1.50;;;20.10;75.40;;;;;;10125155;28;20039;-62
2022/07/10 05:01:25;;;;;;;3.63;1.48;;;20.00;75.60;;;;;;10132914;28;20012;-61
2022/07/10 05:06:16;;;;;;;4.80;2.05;;;20.10;75.70;;;;;;10129008;28;20035;-59
2022/07/10 05:11:06;;;;;;;2.70;1.65;;;20.00;75.90;;;;;;10130891;28;20033;-60
2022/07/10 05:15:57;;;;;;;2.30;1.35;;;19.90;76.10;;;;;;10131752;28;20127;-64
2022/07/10 05:20:49;;;;;;;5.18;1.80;;;20.00;76.00;;;;;;10131434;28;20024;-64
2022/07/10 05:25:40;;;;;;;2.75;1.83;;;19.80;76.30;;;;;;10136114;28;20577;-58
2022/07/10 05:30:31;;;;;;;1.55;1.42;;;19.90;76.50;;;;;;10139425;28;20546;-58
2022/07/10 05:35:22;;;;;;;2.10;1.30;;;20.10;76.00;;;;;;10138903;28;20031;-63
2022/07/10 05:40:12;;;;;;;3.80;1.23;;;20.20;75.80;;;;;;10113851;28;20024;-61
2022/07/10 05:45:05;;;;;;;3.05;1.23;;;20.00;75.90;;;;;;10119735;28;20585;-65
2022/07/10 05:49:56;;;;;;;1.15;1.05;;;19.90;76.20;;;;;;10138841;28;20456;-58
2022/07/10 05:54:46;;;;;;;3.00;1.30;;;19.90;76.30;;;;;;10139416;28;20036;-62
2022/07/10 05:59:37;;;;;;;6.07;1.92;;;20.00;76.10;;;;;;10138318;28;20267;-66
2022/07/10 06:04:28;;;;;;;3.58;1.17;;;20.00;75.80;;;;;;10136887;28;20510;-66
2022/07/10 06:09:18;;;;;;;1.77;1.27;;;19.90;75.70;;;;;;10135596;28;20033;-59
2022/07/10 06:14:09;;;;;;;2.38;1.45;;;20.00;75.90;;;;;;10146332;28;20708;-62
2022/07/10 06:19:00;;;;;;;1.40;1.30;;;20.10;75.40;;;;;;10143989;28;20025;-64
2022/07/10 06:23:50;;;;;;;2.63;1.33;;;20.30;75.10;;;;;;10137622;28;20025;-61
2022/07/10 06:28:41;;;;;;;3.65;1.13;;;20.30;75.00;;;;;;10137300;28;20025;-64
2022/07/10 06:33:35;;;;;;;2.28;1.33;;;20.30;75.00;;;;;;10136743;28;20390;-62
2022/07/10 06:38:26;;;;;;;4.00;1.20;;;20.30;74.60;;;;;;10135256;28;20016;-64
2022/07/10 06:43:16;;;;;;;2.25;1.30;;;20.10;74.60;;;;;;10137786;28;20036;-61
2022/07/10 06:48:07;;;;;;;1.73;1.08;;;20.20;74.40;;;;;;10135945;28;20048;-59
2022/07/10 06:52:59;;;;;;;4.75;1.40;;;20.50;74.10;;;;;;10136379;28;20031;-64
2022/07/10 06:57:49;;;;;;;2.92;1.45;;;20.80;73.70;;;;;;10135950;28;20024;-64
2022/07/10 07:02:40;;;;;;;2.65;1.10;;;20.80;73.60;;;;;;10135631;28;20042;-60
2022/07/10 07:07:31;;;;;;;2.05;1.05;;;20.80;73.30;;;;;;10126086;28;20038;-61
2022/07/10 07:12:22;;;;;;;3.15;1.50;;;20.80;73.40;;;;;;10134922;28;20078;-63
2022/07/10 07:17:14;;;;;;;4.45;1.20;;;21.00;73.30;;;;;;10134566;28;20039;-60
2022/07/10 07:27:14;;;;;;;2.72;1.55;;;20.50;73.70;;;;;;10130404;28;20024;-61
2022/07/10 07:32:05;;;;;;;2.20;1.08;;;20.60;73.30;;;;;;10133989;28;20179;-60
2022/07/10 07:36:56;;;;;;;3.60;1.30;;;20.80;72.90;;;;;;10133755;28;20009;-61
2022/07/10 07:41:47;;;;;;;3.05;1.13;;;20.80;72.90;;;;;;10133471;28;20218;-63
2022/07/10 07:46:38;;;;;;;3.70;1.33;;;20.80;72.60;;;;;;10133023;28;20028;-61
2022/07/10 07:51:28;;;;;;;2.67;1.23;;;20.90;72.20;;;;;;10133146;28;20597;-59
2022/07/10 07:56:19;;;;;;;1.58;0.95;;;21.10;72.10;;;;;;10132922;28;20099;-58
2022/07/10 08:01:09;;;;;;;2.35;1.88;;;21.20;71.60;;;;;;10134108;28;20047;-63
2022/07/10 08:06:01;;;;;;;3.17;1.65;;;21.00;71.70;;;;;;10128196;28;20617;-58
2022/07/10 08:10:52;;;;;;;4.18;1.90;;;20.90;71.60;;;;;;10137305;28;20029;-63
2022/07/10 08:15:42;;;;;;;4.15;1.30;;;21.40;71.00;;;;;;10135576;28;20165;-62
2022/07/10 08:20:33;;;;;;;9.15;2.03;;;21.60;70.30;;;;;;10132833;28;20032;-59
2022/07/10 08:25:25;;;;;;;2.42;1.17;;;21.60;70.10;;;;;;10127054;28;20032;-62
2022/07/10 08:30:16;;;;;;;1.38;1.17;;;21.70;69.90;;;;;;10120721;28;20055;-62
2022/07/10 08:35:08;;;;;;;3.42;1.90;;;21.80;69.50;;;;;;10131540;28;20032;-61
2022/07/10 08:39:58;;;;;;;2.38;1.30;;;21.60;69.30;;;;;;10125019;28;20112;-64
2022/07/10 08:44:51;;;;;;;6.95;1.73;;;21.50;69.70;;;;;;10132598;28;20017;-64
2022/07/10 08:49:47;;;;;;;2.13;1.48;;;21.60;69.30;;;;;;10132270;28;20447;-64
2022/07/10 08:54:38;;;;;;;4.32;1.58;;;21.50;69.30;;;;;;10131295;28;20284;-64
2022/07/10 08:59:30;;;;;;;2.72;1.30;;;21.70;69.10;;;;;;10132124;28;20354;-59
2022/07/10 09:04:22;;;;;;;2.60;1.42;;;21.80;68.70;;;;;;10126985;28;20029;-60
2022/07/10 09:09:13;;;;;;;3.25;1.63;;;21.80;68.70;;;;;;10137002;28;20008;-60
2022/07/10 09:14:07;;;;;;;3.30;1.75;;;22.20;68.10;;;;;;10145702;28;20033;-62
2022/07/10 09:19:16;;;;;;;3.60;1.35;;;22.20;67.90;;;;;;10132611;28;20345;-64
2022/07/10 09:24:10;;;;;;;3.20;1.38;;;22.50;67.50;;;;;;10145798;28;20032;-64
2022/07/10 09:29:11;;;;;;;2.58;1.13;;;22.80;67.20;;;;;;10144705;28;20108;-62
2022/07/10 09:34:02;;;;;;;2.13;1.58;;;22.80;66.40;;;;;;10145417;28;20037;-66
2022/07/10 09:38:54;;;;;;;3.08;1.23;;;22.20;67.20;;;;;;10144534;28;20715;-66
2022/07/10 09:43:56;;;;;;;4.15;1.20;;;22.30;67.10;;;;;;10146042;28;20387;-61
2022/07/10 09:48:47;;;;;;;2.08;1.20;;;22.30;66.60;;;;;;10145611;28;20259;-66
2022/07/10 09:53:42;;;;;;;3.00;1.58;;;22.70;66.30;;;;;;10147153;28;20258;-59
2022/07/10 09:58:37;;;;;;;4.05;2.08;;;22.70;65.80;;;;;;10153913;28;20028;-61
2022/07/10 10:03:32;;;;;;;2.17;1.45;;;22.10;66.50;;;;;;10151373;28;20074;-64
2022/07/10 10:08:29;;;;;;;2.13;1.33;;;22.20;66.20;;;;;;10137346;28;20066;-64
2022/07/10 10:13:28;;;;;;;3.53;1.55;;;22.70;65.50;;;;;;10139872;28;20083;-60
2022/07/10 10:18:24;;;;;;;7.47;1.80;;;23.00;65.00;;;;;;10136954;28;20297;-59
2022/07/10 10:23:21;;;;;;;3.10;1.77;;;23.20;64.60;;;;;;10138665;28;20032;-57
2022/07/10 10:28:14;;;;;;;3.63;1.38;;;23.40;64.50;;;;;;10137731;28;20528;-60
2022/07/10 10:33:23;;;;;;;4.22;1.60;;;22.70;64.70;;;;;;10136308;28;20084;-61
2022/07/10 10:38:18;;;;;;;2.20;0.88;;;22.70;64.50;;;;;;10133751;28;20367;-61
2022/07/10 10:43:21;;;;;;;1.90;1.38;;;22.90;64.10;;;;;;10136410;28;20477;-62
2022/07/10 10:48:17;;;;;;;4.07;1.33;;;23.40;63.20;;;;;;10124070;28;20074;-62
2022/07/10 10:53:28;;;;;;;4.90;1.33;;;23.40;62.70;;;;;;10137801;28;20088;-62
2022/07/10 10:58:20;;;;;;;4.72;1.40;;;23.20;62.30;;;;;;10135582;28;20082;-60
2022/07/10 11:03:15;;;;;;;4.85;1.63;;;23.00;63.20;;;;;;10136970;28;20041;-61
2022/07/10 11:08:06;;;;;;;2.08;1.35;;;23.20;62.10;;;;;;10126725;28;20044;-58
2022/07/10 11:13:00;;;;;;;2.70;1.00;;;23.00;62.00;;;;;;10135660;28;20521;-59
2022/07/10 11:17:52;;;;;;;4.22;2.00;;;23.00;61.90;;;;;;10135211;28;20198;-58
2022/07/10 11:23:08;;;;;;;3.90;1.60;;;23.20;61.60;;;;;;10135313;28;20282;-61
2022/07/10 11:27:58;;;;;;;3.20;1.05;;;23.60;61.00;;;;;;10130321;28;20447;-59
2022/07/10 11:32:50;;;;;;;2.45;1.15;;;23.60;60.80;;;;;;10134766;28;20048;-63
2022/07/10 11:37:54;;;;;;;1.63;0.98;;;23.70;60.60;;;;;;10134675;28;20048;-61
2022/07/10 11:42:52;;;;;;;2.00;0.90;;;23.40;60.30;;;;;;10134004;28;20065;-61
2022/07/10 11:47:42;;;;;;;3.13;1.20;;;23.60;60.00;;;;;;10135691;28;20052;-60
2022/07/10 11:52:36;;;;;;;1.33;1.02;;;23.30;60.20;;;;;;10136197;28;20044;-60
2022/07/10 11:57:27;;;;;;;1.80;1.08;;;23.30;59.90;;;;;;10132887;28;20483;-59
2022/07/10 12:02:22;;;;;;;3.65;1.25;;;23.10;59.80;;;;;;10133546;28;20479;-65
2022/07/10 12:07:12;;;;;;;2.10;1.20;;;23.20;59.60;;;;;;10123902;28;20016;-59
2022/07/10 12:12:06;;;;;;;1.20;0.98;;;23.80;59.10;;;;;;10133405;28;20534;-61
2022/07/10 12:16:58;;;;;;;1.50;1.00;;;23.90;58.70;;;;;;10133108;28;20036;-59
2022/07/10 12:21:49;;;;;;;1.77;1.00;;;24.20;58.90;;;;;;10132837;28;20483;-60
2022/07/10 12:26:42;;;;;;;3.30;1.00;;;24.70;58.50;;;;;;10120334;28;20021;-63
2022/07/10 12:31:34;;;;;;;1.48;0.70;;;24.70;58.90;;;;;;10128274;28;20139;-61
2022/07/10 12:36:25;;;;;;;1.73;0.85;;;25.10;58.90;;;;;;10111773;28;20027;-61
2022/07/10 12:41:22;;;;;;;2.15;0.90;;;25.30;58.80;;;;;;10132657;28;20072;-61
2022/07/10 12:46:19;;;;;;;0.47;0.47;;;25.60;58.60;;;;;;10131915;28;20498;-64
2022/07/10 12:51:25;;;;;;;2.88;0.77;;;25.90;58.00;;;;;;10131596;28;20036;-60
2022/07/10 12:56:37;;;;;;;4.63;0.95;;;26.10;56.20;;;;;;10130461;28;20028;-59
2022/07/10 13:01:38;;;;;;;2.40;0.75;;;27.00;55.30;;;;;;10109768;28;20507;-59
2022/07/10 13:06:35;;;;;;;1.58;0.80;;;27.60;56.30;;;;;;10122221;28;20025;-64
2022/07/10 13:11:27;;;;;;;2.13;0.80;;;28.40;55.00;;;;;;10131901;28;20063;-61
2022/07/10 13:16:17;;;;;;;1.27;0.90;;;28.90;53.80;;;;;;10131784;28;20023;-59
2022/07/10 13:21:08;;;;;;;2.33;0.57;;;29.40;52.80;;;;;;10131537;28;20361;-62
2022/07/10 13:26:01;;;;;;;1.30;0.60;;;30.00;51.30;;;;;;10131323;28;20054;-64
2022/07/10 13:30:51;;;;;;;1.27;0.65;;;31.10;50.40;;;;;;10131438;28;20072;-58
2022/07/10 13:35:42;;;;;;;0.80;0.60;;;31.30;49.30;;;;;;10133544;28;20025;-60
2022/07/10 13:40:34;;;;;;;0.90;0.83;;;32.00;48.80;;;;;;10136324;28;20027;-66
2022/07/10 13:45:29;;;;;;;1.92;0.82;;;33.00;48.00;;;;;;10134229;28;20027;-61
2022/07/10 13:50:20;;;;;;;1.50;0.88;;;32.70;47.10;;;;;;10137947;28;20016;-58
2022/07/10 13:55:11;;;;;;;0.82;0.80;;;32.60;47.00;;;;;;10138015;28;20077;-59
2022/07/10 14:00:02;;;;;;;;;;;32.70;46.50;;;;;;10138463;28;20032;-59
2022/07/10 14:04:53;;;;;;;5.27;1.07;;;32.80;44.90;;;;;;10132928;28;19915;-59
2022/07/10 14:09:43;;;;;;;1.75;0.80;;;33.10;45.80;;;;;;10133492;28;20579;-63
2022/07/10 14:14:34;;;;;;;1.15;1.00;;;33.30;45.30;;;;;;10137292;28;20041;-64
2022/07/10 14:19:25;;;;;;;0.73;0.63;;;33.40;44.90;;;;;;10137401;28;20052;-56
2022/07/10 14:24:15;;;;;;;1.05;0.80;;;33.80;44.10;;;;;;10136881;28;20094;-60
2022/07/10 14:29:06;;;;;;;2.15;0.80;;;33.60;43.90;;;;;;10136911;28;20498;-58
2022/07/10 14:33:57;;;;;;;1.83;0.73;;;33.40;43.80;;;;;;10136803;28;20033;-59
2022/07/10 14:38:47;;;;;;;2.13;0.80;;;33.10;43.20;;;;;;10136787;28;20036;-58
2022/07/10 14:43:38;;;;;;;;;;;34.30;42.60;;;;;;10137318;28;20430;-66
2022/07/10 14:48:32;;;;;;;1.93;0.90;;;34.30;41.60;;;;;;10136273;28;19953;-58
2022/07/10 14:53:23;;;;;;;3.58;1.83;;;34.20;42.70;;;;;;10137171;28;20033;-59
2022/07/10 14:58:14;;;;;;;1.58;1.02;;;35.20;41.90;;;;;;10135095;28;20057;-61
2022/07/10 15:03:05;;;;;;;;;;;34.30;41.60;;;;;;10136993;28;20036;-62
2022/07/10 15:07:55;;;;;;;2.10;1.10;;;34.10;41.30;;;;;;10127444;28;20402;-61
2022/07/10 15:12:46;;;;;;;3.78;1.02;;;34.50;41.50;;;;;;10135961;28;20036;-64
2022/07/10 15:17:37;;;;;;;2.92;1.25;;;34.60;40.70;;;;;;10139023;28;20029;-62
2022/07/10 15:22:28;;;;;;;4.80;1.63;;;33.30;41.40;;;;;;10145026;28;20069;-66
2022/07/10 15:27:18;;;;;;;2.53;1.42;;;31.00;42.80;;;;;;10143718;28;20372;-64
2022/07/10 15:32:10;;;;;;;3.40;0.97;;;32.60;41.50;;;;;;10134530;28;20052;-65
2022/07/10 15:37:01;;;;;;;3.30;0.98;;;33.00;41.00;;;;;;10134917;28;20121;-64
2022/07/10 15:41:51;;;;;;;3.15;1.80;;;31.60;41.80;;;;;;10134447;28;20056;-64
2022/07/10 15:46:42;;;;;;;2.70;1.05;;;31.60;41.70;;;;;;10134379;28;20253;-64
2022/07/10 15:51:33;;;;;;;3.70;1.43;;;32.80;40.90;;;;;;10135196;28;20043;-63
2022/07/10 15:56:24;;;;;;;3.50;1.07;;;33.80;40.30;;;;;;10133333;28;20021;-61
2022/07/10 16:01:15;;;;;;;1.60;1.15;;;34.50;40.20;;;;;;10134134;28;20274;-64
2022/07/10 16:06:06;;;;;;;1.90;1.30;;;34.90;39.90;;;;;;10133673;28;20071;-61
2022/07/10 16:10:56;;;;;;;;;;;36.10;39.30;;;;;;10133613;28;20455;-59
2022/07/10 16:15:47;;;;;;;2.03;0.87;;;36.30;38.60;;;;;;10132830;28;19958;-59
2022/07/10 16:20:38;;;;;;;;;;;36.30;39.20;;;;;;10134136;28;20628;-64
2022/07/10 16:30:38;;;;;;;1.90;0.90;;;35.50;38.70;;;;;;10133050;28;20043;-60
2022/07/10 16:35:28;;;;;;;1.90;1.40;;;36.60;37.80;;;;;;10131855;28;20051;-63
2022/07/10 16:40:19;;;;;;;1.50;1.10;;;36.70;37.50;;;;;;10132049;28;20267;-62
2022/07/10 16:45:11;;;;;;;1.70;0.80;;;37.10;37.00;;;;;;10132188;28;20028;-64
2022/07/10 16:50:01;;;;;;;2.60;1.10;;;37.20;36.70;;;;;;10132113;28;20517;-63
2022/07/10 16:54:52;;;;;;;3.22;1.00;;;37.40;36.60;;;;;;10131572;28;20036;-63
2022/07/10 16:59:43;;;;;;;1.90;1.00;;;37.50;36.30;;;;;;10138032;28;20187;-64
2022/07/10 17:04:37;;;;;;;2.08;1.02;;;37.70;35.80;;;;;;10137263;28;20037;-65
2022/07/10 17:09:28;;;;;;;2.67;1.27;;;37.10;35.80;;;;;;10135146;28;20013;-66
2022/07/10 17:14:19;;;;;;;1.10;0.90;;;37.80;35.40;;;;;;10131720;28;20441;-66
2022/07/10 17:19:10;;;;;;;1.07;0.97;;;37.50;35.20;;;;;;10131531;28;20074;-65
2022/07/10 17:24:00;;;;;;;1.80;0.80;;;37.20;35.20;;;;;;10139649;28;20044;-60
2022/07/10 17:28:51;;;;;;;2.93;1.50;;;36.00;35.90;;;;;;10139493;28;20516;-63
2022/07/10 17:33:42;;;;;;;2.13;0.90;;;37.80;34.90;;;;;;10138622;28;20044;-63
2022/07/10 17:38:32;;;;;;;2.20;1.20;;;37.10;35.00;;;;;;10139119;28;20039;-64
2022/07/10 17:43:23;;;;;;;2.53;1.40;;;37.20;35.00;;;;;;10138622;28;20112;-61
2022/07/10 17:48:14;;;;;;;2.40;1.70;;;37.10;35.20;;;;;;10139215;28;20104;-64
2022/07/10 17:53:04;;;;;;;1.70;1.20;;;36.70;35.30;;;;;;10138769;28;20395;-64
2022/07/10 17:57:55;;;;;;;2.92;1.40;;;36.20;35.70;;;;;;10137931;28;20029;-62
2022/07/10 18:02:45;;;;;;;3.15;1.20;;;34.80;36.80;;;;;;10134653;28;20097;-61
2022/07/10 18:07:36;;;;;;;4.85;1.20;;;32.50;38.00;;;;;;10128968;28;20112;-63
2022/07/10 18:12:27;;;;;;;2.22;1.00;;;30.20;39.80;;;;;;10137888;28;20127;-61
2022/07/10 18:17:18;;;;;;;2.72;1.10;;;28.60;41.10;;;;;;10137290;28;20035;-66
2022/07/10 18:22:09;;;;;;;5.80;2.30;;;27.90;41.50;;;;;;10138056;28;20025;-61
2022/07/10 18:27:01;;;;;;;5.63;2.15;;;27.50;42.10;;;;;;10136327;28;20025;-68
2022/07/10 18:31:53;;;;;;;3.95;1.45;;;27.30;42.40;;;;;;10130648;28;20044;-60
2022/07/10 18:36:44;;;;;;;3.55;1.40;;;27.30;42.40;;;;;;10128633;28;20047;-59
2022/07/10 18:41:36;;;;;;;2.45;1.10;;;26.90;43.10;;;;;;10139356;28;20048;-63
2022/07/10 18:46:28;;;;;;;3.10;2.03;;;26.60;43.80;;;;;;10138832;28;20079;-63
2022/07/10 18:51:19;;;;;;;3.78;1.23;;;26.30;44.30;;;;;;10125648;28;20051;-67
2022/07/10 18:56:09;;;;;;;2.85;1.25;;;26.00;45.00;;;;;;10135883;28;20498;-64
2022/07/10 19:01:00;;;;;;;5.32;2.05;;;25.90;45.10;;;;;;10136736;28;20359;-64
2022/07/10 19:05:51;;;;;;;2.58;1.30;;;25.80;45.60;;;;;;10127295;28;20669;-67
2022/07/10 19:10:42;;;;;;;3.65;1.10;;;25.90;45.50;;;;;;10136101;28;20033;-63
2022/07/10 19:15:33;;;;;;;2.90;1.20;;;25.60;46.00;;;;;;10136114;28;20090;-61
2022/07/10 19:20:24;;;;;;;2.92;1.25;;;25.60;46.40;;;;;;10135980;28;20079;-59
2022/07/10 19:25:15;;;;;;;2.65;0.90;;;25.40;46.70;;;;;;10135385;28;20545;-62
2022/07/10 19:30:09;;;;;;;1.73;0.80;;;24.90;47.60;;;;;;10135773;28;20048;-64
2022/07/10 19:35:00;;;;;;;1.57;1.03;;;24.80;48.10;;;;;;10136034;28;20040;-67
2022/07/10 19:39:51;;;;;;;1.23;0.80;;;24.90;48.10;;;;;;10135506;28;20755;-62
2022/07/10 19:44:41;;;;;;;1.67;0.90;;;24.90;48.20;;;;;;10134567;28;20052;-65
2022/07/10 19:49:32;;;;;;;4.80;0.85;;;24.80;48.30;;;;;;10134760;28;20100;-59
2022/07/10 19:54:23;;;;;;;5.15;1.58;;;24.80;48.40;;;;;;10133459;28;20590;-62
2022/07/10 19:59:17;;;;;;;2.65;1.05;;;24.80;48.50;;;;;;10133919;28;20028;-65
2022/07/10 20:04:10;;;;;;;3.78;1.63;;;24.80;48.50;;;;;;10133727;28;20031;-58
2022/07/10 20:09:01;;;;;;;2.80;1.23;;;24.70;48.70;;;;;;10123115;28;20025;-62
2022/07/10 20:13:51;;;;;;;3.75;1.20;;;24.60;49.00;;;;;;10134101;28;20029;-65
2022/07/10 20:18:42;;;;;;;1.17;0.90;;;24.40;49.40;;;;;;10134547;28;20016;-60
2022/07/10 20:23:33;;;;;;;1.73;0.70;;;24.40;49.60;;;;;;10133131;28;20431;-59
2022/07/10 20:28:23;;;;;;;2.38;1.27;;;24.30;50.00;;;;;;10132929;28;20024;-59
2022/07/10 20:33:14;;;;;;;1.70;1.00;;;24.30;50.10;;;;;;10132394;28;20053;-60
2022/07/10 20:38:05;;;;;;;3.35;1.05;;;24.10;50.50;;;;;;10133060;28;20028;-59
2022/07/10 20:43:02;;;;;;;1.42;0.75;;;24.10;50.60;;;;;;10132826;28;20099;-60
2022/07/10 20:47:52;;;;;;;2.80;0.80;;;24.10;50.90;;;;;;10132239;28;20028;-59
2022/07/10 20:52:44;;;;;;;2.75;1.20;;;24.30;50.90;;;;;;10132649;28;20236;-59
2022/07/10 20:57:37;;;;;;;1.98;0.90;;;24.00;51.40;;;;;;10131459;28;20044;-59
2022/07/10 21:02:28;;;;;;;1.73;0.80;;;24.10;51.60;;;;;;10132570;28;20028;-60
2022/07/10 21:07:19;;;;;;;2.85;0.90;;;24.00;51.80;;;;;;10122472;28;20025;-59
2022/07/10 21:12:10;;;;;;;1.20;0.75;;;23.90;52.10;;;;;;10132756;28;20036;-63
2022/07/10 21:17:00;;;;;;;0.63;0.50;;;23.80;52.40;;;;;;10131118;28;20590;-59
2022/07/10 21:21:51;;;;;;;2.00;0.85;;;23.70;52.70;;;;;;10131689;28;20078;-59
2022/07/10 21:26:42;;;;;;;0.88;0.80;;;23.50;53.20;;;;;;10131578;28;20698;-59
2022/07/10 21:31:32;;;;;;;1.13;0.60;;;23.40;53.30;;;;;;10131866;28;20124;-58
2022/07/10 21:36:23;;;;;;;1.42;0.93;;;23.40;54.40;;;;;;10130918;28;20487;-59
2022/07/10 21:41:14;;;;;;;2.80;1.20;;;23.30;53.90;;;;;;10131806;28;20020;-58
2022/07/10 21:46:06;;;;;;;2.65;1.10;;;23.00;54.50;;;;;;10131142;28;20037;-59
2022/07/10 21:50:58;;;;;;;0.70;0.70;;;23.00;54.70;;;;;;10131747;28;20032;-59
2022/07/10 21:55:49;;;;;;;0.50;0.50;;;22.90;54.80;;;;;;10112744;28;20123;-59
2022/07/10 22:00:40;;;;;;;2.22;0.82;;;23.00;55.10;;;;;;10132259;28;20095;-58
2022/07/10 22:05:32;;;;;;;4.05;0.82;;;22.80;55.40;;;;;;10124189;28;20499;-59
2022/07/10 22:10:23;;;;;;;3.85;0.90;;;22.80;55.50;;;;;;10138930;28;20576;-62
2022/07/10 22:15:14;;;;;;;1.45;0.73;;;22.70;55.70;;;;;;10138965;28;20078;-58
2022/07/10 22:20:09;;;;;;;3.20;0.88;;;22.80;55.80;;;;;;10138574;28;20042;-61
2022/07/10 22:24:59;;;;;;;1.65;1.20;;;22.80;55.70;;;;;;10136990;28;20451;-60
2022/07/10 22:29:53;;;;;;;2.78;1.15;;;22.70;55.90;;;;;;10137356;28;20123;-59
2022/07/10 22:34:43;;;;;;;2.20;1.00;;;22.70;56.10;;;;;;10136452;28;20431;-60
2022/07/10 22:39:34;;;;;;;1.05;0.85;;;22.70;56.20;;;;;;10118554;28;20036;-59
2022/07/10 22:44:25;;;;;;;4.10;1.38;;;22.60;56.50;;;;;;10136688;28;20033;-60
2022/07/10 22:49:15;;;;;;;0.77;0.77;;;22.50;56.70;;;;;;10136677;28;20627;-66
2022/07/10 22:54:06;;;;;;;3.22;1.25;;;22.30;57.20;;;;;;10117962;28;20037;-64
2022/07/10 22:58:56;;;;;;;2.70;1.15;;;22.30;57.20;;;;;;10136411;28;20017;-62
2022/07/10 23:03:47;;;;;;;1.20;0.90;;;22.30;57.80;;;;;;10135363;28;20033;-66
2022/07/10 23:08:38;;;;;;;2.40;1.00;;;22.10;58.40;;;;;;10129401;28;20611;-67
2022/07/10 23:13:29;;;;;;;2.15;1.20;;;22.00;58.60;;;;;;10134705;28;20066;-64
2022/07/10 23:18:20;;;;;;;4.30;0.98;;;22.00;58.70;;;;;;10135390;28;20180;-61
2022/07/10 23:23:11;;;;;;;1.20;0.88;;;21.80;59.20;;;;;;10135154;28;20282;-58
2022/07/10 23:28:01;;;;;;;1.73;1.20;;;21.80;59.30;;;;;;10135334;28;20027;-63
2022/07/10 23:32:52;;;;;;;1.65;0.70;;;21.80;59.40;;;;;;10134915;28;20053;-58
2022/07/10 23:37:43;;;;;;;2.28;0.73;;;21.70;59.60;;;;;;10139968;28;20485;-65
2022/07/10 23:42:34;;;;;;;2.35;1.08;;;21.70;59.80;;;;;;10139758;28;20131;-59
2022/07/10 23:47:24;;;;;;;1.55;0.93;;;21.50;60.30;;;;;;10134567;28;20016;-59
2022/07/10 23:52:15;;;;;;;1.13;0.70;;;21.50;60.60;;;;;;10134451;28;20115;-62
2022/07/10 23:57:09;;;;;;;1.77;0.88;;;21.40;60.80;;;;;;10133367;28;20409;-59
